sensor_id;sensor_type;location;lat;lon;timestamp;temperature;humidity
41939;DHT22;23057;48.554;14.454;2024-03-25T00:02:09;2.10;99.90
41939;DHT22;23057;48.554;14.454;2024-03-25T00:04:40;2.20;99.90
41939;DHT22;23057;48.554;14.454;2024-03-25T00:07:11;2.20;99.90
41939;DHT22;23057;48.554;14.454;2024-03-25T00:09:42;2.10;99.90
41939;DHT22;23057;48.554;14.454;2024-03-25T00:12:13;2.10;99.90
41939;DHT22;23057;48.554;14.454;2024-03-25T00:14:44;2.10;99.90
41939;DHT22;23057;48.554;14.454;2024-03-25T00:17:15;2.10;99.90
41939;DHT22;23057;48.554;14.454;2024-03-25T00:19:47;2.20;99.90
41939;DHT22;23057;48.554;14.454;2024-03-25T00:22:21;2.10;99.90
41939;DHT22;23057;48.554;14.454;2024-03-25T00:24:55;2.10;99.90
41939;DHT22;23057;48.554;14.454;2024-03-25T00:27:26;2.10;99.90
41939;DHT22;23057;48.554;14.454;2024-03-25T00:29:59;2.10;99.90
41939;DHT22;23057;48.554;14.454;2024-03-25T00:32:29;2.10;99.90
41939;DHT22;23057;48.554;14.454;2024-03-25T00:35:01;2.10;99.90
41939;DHT22;23057;48.554;14.454;2024-03-25T00:37:32;2.10;99.90
41939;DHT22;23057;48.554;14.454;2024-03-25T00:40:03;2.00;99.90
41939;DHT22;23057;48.554;14.454;2024-03-25T00:42:37;2.00;99.90
41939;DHT22;23057;48.554;14.454;2024-03-25T00:45:09;2.00;99.90
41939;DHT22;23057;48.554;14.454;2024-03-25T00:47:40;2.00;99.90
41939;DHT22;23057;48.554;14.454;2024-03-25T00:50:11;2.10;99.90
41939;DHT22;23057;48.554;14.454;2024-03-25T00:52:41;2.10;99.90
41939;DHT22;23057;48.554;14.454;2024-03-25T00:55:12;2.10;99.90
41939;DHT22;23057;48.554;14.454;2024-03-25T00:57:44;2.10;99.90
41939;DHT22;23057;48.554;14.454;2024-03-25T01:00:16;2.10;99.90
41939;DHT22;23057;48.554;14.454;2024-03-25T01:02:47;2.10;99.90
41939;DHT22;23057;48.554;14.454;2024-03-25T01:05:18;2.10;99.90
41939;DHT22;23057;48.554;14.454;2024-03-25T01:07:49;2.20;99.90
41939;DHT22;23057;48.554;14.454;2024-03-25T01:10:20;2.20;99.90
41939;DHT22;23057;48.554;14.454;2024-03-25T01:12:51;2.20;99.90
41939;DHT22;23057;48.554;14.454;2024-03-25T01:15:22;2.30;99.90
41939;DHT22;23057;48.554;14.454;2024-03-25T01:17:53;2.30;99.90
41939;DHT22;23057;48.554;14.454;2024-03-25T01:20:24;2.20;99.90
41939;DHT22;23057;48.554;14.454;2024-03-25T01:22:55;2.30;99.90
41939;DHT22;23057;48.554;14.454;2024-03-25T01:25:26;2.30;99.90
41939;DHT22;23057;48.554;14.454;2024-03-25T01:27:57;2.40;99.90
41939;DHT22;23057;48.554;14.454;2024-03-25T01:30:28;2.40;99.90
41939;DHT22;23057;48.554;14.454;2024-03-25T01:33:00;2.40;99.90
41939;DHT22;23057;48.554;14.454;2024-03-25T01:35:31;2.40;99.90
41939;DHT22;23057;48.554;14.454;2024-03-25T01:38:03;2.40;99.90
41939;DHT22;23057;48.554;14.454;2024-03-25T01:40:34;2.40;99.90
41939;DHT22;23057;48.554;14.454;2024-03-25T01:43:05;2.40;99.90
41939;DHT22;23057;48.554;14.454;2024-03-25T01:45:36;2.40;99.90
41939;DHT22;23057;48.554;14.454;2024-03-25T01:48:08;2.40;99.90
41939;DHT22;23057;48.554;14.454;2024-03-25T01:50:43;2.50;99.90
41939;DHT22;23057;48.554;14.454;2024-03-25T01:53:16;2.50;99.90
41939;DHT22;23057;48.554;14.454;2024-03-25T01:55:48;2.40;99.90
41939;DHT22;23057;48.554;14.454;2024-03-25T01:58:20;2.40;99.90
41939;DHT22;23057;48.554;14.454;2024-03-25T02:00:53;2.40;99.90
41939;DHT22;23057;48.554;14.454;2024-03-25T02:03:26;2.40;99.90
41939;DHT22;23057;48.554;14.454;2024-03-25T02:06:02;2.40;99.90
41939;DHT22;23057;48.554;14.454;2024-03-25T02:08:41;2.50;99.90
41939;DHT22;23057;48.554;14.454;2024-03-25T02:11:13;2.60;99.90
41939;DHT22;23057;48.554;14.454;2024-03-25T02:13:45;2.50;99.90
41939;DHT22;23057;48.554;14.454;2024-03-25T02:16:17;2.50;99.90
41939;DHT22;23057;48.554;14.454;2024-03-25T02:18:48;2.50;99.90
41939;DHT22;23057;48.554;14.454;2024-03-25T02:21:19;2.50;99.90
41939;DHT22;23057;48.554;14.454;2024-03-25T02:23:50;2.50;99.90
41939;DHT22;23057;48.554;14.454;2024-03-25T02:26:28;2.50;99.90
41939;DHT22;23057;48.554;14.454;2024-03-25T02:29:00;2.50;99.90
41939;DHT22;23057;48.554;14.454;2024-03-25T02:31:31;2.50;99.90
41939;DHT22;23057;48.554;14.454;2024-03-25T02:34:03;2.50;99.90
41939;DHT22;23057;48.554;14.454;2024-03-25T02:36:34;2.50;99.90
41939;DHT22;23057;48.554;14.454;2024-03-25T02:39:05;2.50;99.90
41939;DHT22;23057;48.554;14.454;2024-03-25T02:41:36;2.50;99.90
41939;DHT22;23057;48.554;14.454;2024-03-25T02:44:07;2.50;99.90
41939;DHT22;23057;48.554;14.454;2024-03-25T02:46:40;2.50;99.90
41939;DHT22;23057;48.554;14.454;2024-03-25T02:49:11;2.60;99.90
41939;DHT22;23057;48.554;14.454;2024-03-25T02:51:42;2.50;99.90
41939;DHT22;23057;48.554;14.454;2024-03-25T02:54:13;2.50;99.90
41939;DHT22;23057;48.554;14.454;2024-03-25T02:56:45;2.50;99.90
41939;DHT22;23057;48.554;14.454;2024-03-25T02:59:16;2.50;99.90
41939;DHT22;23057;48.554;14.454;2024-03-25T03:01:46;2.60;99.90
41939;DHT22;23057;48.554;14.454;2024-03-25T03:04:17;2.50;99.90
41939;DHT22;23057;48.554;14.454;2024-03-25T03:06:48;2.50;99.90
41939;DHT22;23057;48.554;14.454;2024-03-25T03:09:19;2.50;99.90
41939;DHT22;23057;48.554;14.454;2024-03-25T03:11:50;2.60;99.90
41939;DHT22;23057;48.554;14.454;2024-03-25T03:14:21;2.60;99.90
41939;DHT22;23057;48.554;14.454;2024-03-25T03:16:52;2.60;99.90
41939;DHT22;23057;48.554;14.454;2024-03-25T03:19:25;2.60;99.90
41939;DHT22;23057;48.554;14.454;2024-03-25T03:21:57;2.60;99.90
41939;DHT22;23057;48.554;14.454;2024-03-25T03:24:29;2.50;99.90
41939;DHT22;23057;48.554;14.454;2024-03-25T03:27:00;2.60;99.90
41939;DHT22;23057;48.554;14.454;2024-03-25T03:29:31;2.60;99.90
41939;DHT22;23057;48.554;14.454;2024-03-25T03:32:02;2.60;99.90
41939;DHT22;23057;48.554;14.454;2024-03-25T03:34:33;2.60;99.90
41939;DHT22;23057;48.554;14.454;2024-03-25T03:37:04;2.60;99.90
41939;DHT22;23057;48.554;14.454;2024-03-25T03:39:35;2.60;99.90
41939;DHT22;23057;48.554;14.454;2024-03-25T03:42:06;2.60;99.90
41939;DHT22;23057;48.554;14.454;2024-03-25T03:44:37;2.60;99.90
41939;DHT22;23057;48.554;14.454;2024-03-25T03:47:08;2.60;99.90
41939;DHT22;23057;48.554;14.454;2024-03-25T03:49:39;2.60;99.90
41939;DHT22;23057;48.554;14.454;2024-03-25T03:52:10;2.60;99.90
41939;DHT22;23057;48.554;14.454;2024-03-25T03:54:41;2.60;99.90
41939;DHT22;23057;48.554;14.454;2024-03-25T03:57:12;2.60;99.90
41939;DHT22;23057;48.554;14.454;2024-03-25T03:59:43;2.60;99.90
41939;DHT22;23057;48.554;14.454;2024-03-25T04:02:14;2.60;99.90
41939;DHT22;23057;48.554;14.454;2024-03-25T04:04:45;2.60;99.90
41939;DHT22;23057;48.554;14.454;2024-03-25T04:07:16;2.60;99.90
41939;DHT22;23057;48.554;14.454;2024-03-25T04:09:47;2.60;99.90
41939;DHT22;23057;48.554;14.454;2024-03-25T04:12:17;2.60;99.90
41939;DHT22;23057;48.554;14.454;2024-03-25T04:14:49;2.60;99.90
41939;DHT22;23057;48.554;14.454;2024-03-25T04:17:25;2.60;99.90
41939;DHT22;23057;48.554;14.454;2024-03-25T04:19:58;2.60;99.90
41939;DHT22;23057;48.554;14.454;2024-03-25T04:22:36;2.60;99.90
41939;DHT22;23057;48.554;14.454;2024-03-25T04:25:11;2.60;99.90
41939;DHT22;23057;48.554;14.454;2024-03-25T04:27:43;2.60;99.90
41939;DHT22;23057;48.554;14.454;2024-03-25T04:30:15;2.60;99.90
41939;DHT22;23057;48.554;14.454;2024-03-25T04:32:46;2.60;99.90
41939;DHT22;23057;48.554;14.454;2024-03-25T04:35:17;2.60;99.90
41939;DHT22;23057;48.554;14.454;2024-03-25T04:37:48;2.60;99.90
41939;DHT22;23057;48.554;14.454;2024-03-25T04:40:19;2.60;99.90
41939;DHT22;23057;48.554;14.454;2024-03-25T04:42:50;2.60;99.90
41939;DHT22;23057;48.554;14.454;2024-03-25T04:45:21;2.60;99.90
41939;DHT22;23057;48.554;14.454;2024-03-25T04:47:53;2.60;99.90
41939;DHT22;23057;48.554;14.454;2024-03-25T04:50:24;2.60;99.90
41939;DHT22;23057;48.554;14.454;2024-03-25T04:52:56;2.60;99.90
41939;DHT22;23057;48.554;14.454;2024-03-25T04:55:27;2.60;99.90
41939;DHT22;23057;48.554;14.454;2024-03-25T04:57:58;2.60;99.90
41939;DHT22;23057;48.554;14.454;2024-03-25T05:00:29;2.60;99.90
41939;DHT22;23057;48.554;14.454;2024-03-25T05:03:00;2.60;99.90
41939;DHT22;23057;48.554;14.454;2024-03-25T05:05:31;2.60;99.90
41939;DHT22;23057;48.554;14.454;2024-03-25T05:08:02;2.60;99.90
41939;DHT22;23057;48.554;14.454;2024-03-25T05:10:33;2.60;99.90
41939;DHT22;23057;48.554;14.454;2024-03-25T05:13:05;2.60;99.90
41939;DHT22;23057;48.554;14.454;2024-03-25T05:15:36;2.60;99.90
41939;DHT22;23057;48.554;14.454;2024-03-25T05:18:07;2.60;99.90
41939;DHT22;23057;48.554;14.454;2024-03-25T05:20:38;2.60;99.90
41939;DHT22;23057;48.554;14.454;2024-03-25T05:23:12;2.70;99.90
41939;DHT22;23057;48.554;14.454;2024-03-25T05:25:43;2.60;99.90
41939;DHT22;23057;48.554;14.454;2024-03-25T05:28:14;2.60;99.90
41939;DHT22;23057;48.554;14.454;2024-03-25T05:30:45;2.70;99.90
41939;DHT22;23057;48.554;14.454;2024-03-25T05:33:16;2.60;99.90
41939;DHT22;23057;48.554;14.454;2024-03-25T05:35:47;2.60;99.90
41939;DHT22;23057;48.554;14.454;2024-03-25T05:38:29;2.60;99.90
41939;DHT22;23057;48.554;14.454;2024-03-25T05:41:06;2.60;99.90
41939;DHT22;23057;48.554;14.454;2024-03-25T05:43:37;2.60;99.90
41939;DHT22;23057;48.554;14.454;2024-03-25T05:46:09;2.60;99.90
41939;DHT22;23057;48.554;14.454;2024-03-25T05:48:40;2.60;99.90
41939;DHT22;23057;48.554;14.454;2024-03-25T05:51:12;2.60;99.90
41939;DHT22;23057;48.554;14.454;2024-03-25T05:53:43;2.60;99.90
41939;DHT22;23057;48.554;14.454;2024-03-25T05:56:14;2.60;99.90
41939;DHT22;23057;48.554;14.454;2024-03-25T05:58:45;2.60;99.90
41939;DHT22;23057;48.554;14.454;2024-03-25T06:01:16;2.60;99.90
41939;DHT22;23057;48.554;14.454;2024-03-25T06:03:47;2.50;99.90
41939;DHT22;23057;48.554;14.454;2024-03-25T06:06:18;2.60;99.90
41939;DHT22;23057;48.554;14.454;2024-03-25T06:08:49;2.60;99.90
41939;DHT22;23057;48.554;14.454;2024-03-25T06:11:21;2.60;99.90
41939;DHT22;23057;48.554;14.454;2024-03-25T06:13:52;2.60;99.90
41939;DHT22;23057;48.554;14.454;2024-03-25T06:16:22;2.60;99.90
41939;DHT22;23057;48.554;14.454;2024-03-25T06:18:53;2.70;99.90
41939;DHT22;23057;48.554;14.454;2024-03-25T06:21:24;2.70;99.90
41939;DHT22;23057;48.554;14.454;2024-03-25T06:24:01;2.70;99.90
41939;DHT22;23057;48.554;14.454;2024-03-25T06:26:36;2.70;99.90
41939;DHT22;23057;48.554;14.454;2024-03-25T06:29:07;2.70;99.90
41939;DHT22;23057;48.554;14.454;2024-03-25T06:31:38;2.70;99.90
41939;DHT22;23057;48.554;14.454;2024-03-25T06:34:27;2.70;99.90
41939;DHT22;23057;48.554;14.454;2024-03-25T06:36:59;2.70;99.90
41939;DHT22;23057;48.554;14.454;2024-03-25T06:39:30;2.80;99.90
41939;DHT22;23057;48.554;14.454;2024-03-25T06:42:01;2.70;99.90
41939;DHT22;23057;48.554;14.454;2024-03-25T06:44:32;2.70;99.90
41939;DHT22;23057;48.554;14.454;2024-03-25T06:47:03;2.70;99.90
41939;DHT22;23057;48.554;14.454;2024-03-25T06:49:35;2.70;99.90
41939;DHT22;23057;48.554;14.454;2024-03-25T06:52:06;2.80;99.90
41939;DHT22;23057;48.554;14.454;2024-03-25T06:54:37;2.80;99.90
41939;DHT22;23057;48.554;14.454;2024-03-25T06:57:08;2.80;99.90
41939;DHT22;23057;48.554;14.454;2024-03-25T06:59:39;2.90;99.90
41939;DHT22;23057;48.554;14.454;2024-03-25T07:02:10;2.80;99.90
41939;DHT22;23057;48.554;14.454;2024-03-25T07:04:41;2.80;99.90
41939;DHT22;23057;48.554;14.454;2024-03-25T07:07:12;2.80;99.90
41939;DHT22;23057;48.554;14.454;2024-03-25T07:09:42;2.80;99.90
41939;DHT22;23057;48.554;14.454;2024-03-25T07:12:13;2.70;99.90
41939;DHT22;23057;48.554;14.454;2024-03-25T07:14:44;2.60;99.90
41939;DHT22;23057;48.554;14.454;2024-03-25T07:17:15;2.50;99.90
41939;DHT22;23057;48.554;14.454;2024-03-25T07:19:46;2.60;99.90
41939;DHT22;23057;48.554;14.454;2024-03-25T07:22:18;2.60;99.90
41939;DHT22;23057;48.554;14.454;2024-03-25T07:24:49;2.60;99.90
41939;DHT22;23057;48.554;14.454;2024-03-25T07:27:26;2.60;99.90
41939;DHT22;23057;48.554;14.454;2024-03-25T07:29:57;2.50;99.90
41939;DHT22;23057;48.554;14.454;2024-03-25T07:32:28;2.30;99.90
41939;DHT22;23057;48.554;14.454;2024-03-25T07:34:59;2.30;99.90
41939;DHT22;23057;48.554;14.454;2024-03-25T07:37:30;2.20;99.90
41939;DHT22;23057;48.554;14.454;2024-03-25T07:40:01;2.20;99.90
41939;DHT22;23057;48.554;14.454;2024-03-25T07:42:34;2.20;99.90
41939;DHT22;23057;48.554;14.454;2024-03-25T07:45:06;2.20;99.90
41939;DHT22;23057;48.554;14.454;2024-03-25T07:47:37;2.20;99.90
41939;DHT22;23057;48.554;14.454;2024-03-25T07:50:08;2.30;99.90
41939;DHT22;23057;48.554;14.454;2024-03-25T07:52:40;2.40;99.90
41939;DHT22;23057;48.554;14.454;2024-03-25T07:55:11;2.70;99.90
41939;DHT22;23057;48.554;14.454;2024-03-25T07:57:43;2.70;99.90
41939;DHT22;23057;48.554;14.454;2024-03-25T08:00:14;2.90;99.90
41939;DHT22;23057;48.554;14.454;2024-03-25T08:02:45;3.00;99.90
41939;DHT22;23057;48.554;14.454;2024-03-25T08:05:16;3.10;99.90
41939;DHT22;23057;48.554;14.454;2024-03-25T08:07:47;3.20;99.90
41939;DHT22;23057;48.554;14.454;2024-03-25T08:10:18;3.00;99.90
41939;DHT22;23057;48.554;14.454;2024-03-25T08:12:49;3.10;99.90
41939;DHT22;23057;48.554;14.454;2024-03-25T08:15:20;3.00;99.90
41939;DHT22;23057;48.554;14.454;2024-03-25T08:17:51;3.10;99.90
41939;DHT22;23057;48.554;14.454;2024-03-25T08:20:22;3.10;99.90
41939;DHT22;23057;48.554;14.454;2024-03-25T08:22:53;3.10;99.90
41939;DHT22;23057;48.554;14.454;2024-03-25T08:25:24;3.20;99.90
41939;DHT22;23057;48.554;14.454;2024-03-25T08:27:55;3.10;99.90
41939;DHT22;23057;48.554;14.454;2024-03-25T08:30:26;3.20;99.90
41939;DHT22;23057;48.554;14.454;2024-03-25T08:32:57;3.30;99.90
41939;DHT22;23057;48.554;14.454;2024-03-25T08:35:28;3.40;99.90
41939;DHT22;23057;48.554;14.454;2024-03-25T08:37:58;3.50;99.90
41939;DHT22;23057;48.554;14.454;2024-03-25T08:40:29;3.70;99.90
41939;DHT22;23057;48.554;14.454;2024-03-25T08:43:00;3.70;99.90
41939;DHT22;23057;48.554;14.454;2024-03-25T08:45:31;3.90;99.90
41939;DHT22;23057;48.554;14.454;2024-03-25T08:48:03;4.00;99.90
41939;DHT22;23057;48.554;14.454;2024-03-25T08:50:34;4.00;99.90
41939;DHT22;23057;48.554;14.454;2024-03-25T08:53:05;4.00;99.90
41939;DHT22;23057;48.554;14.454;2024-03-25T08:55:36;4.30;99.90
41939;DHT22;23057;48.554;14.454;2024-03-25T08:58:07;4.20;99.90
41939;DHT22;23057;48.554;14.454;2024-03-25T09:00:38;4.30;99.90
41939;DHT22;23057;48.554;14.454;2024-03-25T09:03:09;4.50;99.90
41939;DHT22;23057;48.554;14.454;2024-03-25T09:05:43;4.80;99.90
41939;DHT22;23057;48.554;14.454;2024-03-25T09:08:14;5.30;99.90
41939;DHT22;23057;48.554;14.454;2024-03-25T09:10:46;5.70;74.30
41939;DHT22;23057;48.554;14.454;2024-03-25T09:13:37;5.70;1.00
41939;DHT22;23057;48.554;14.454;2024-03-25T09:16:08;6.10;99.90
41939;DHT22;23057;48.554;14.454;2024-03-25T09:18:39;6.30;1.00
41939;DHT22;23057;48.554;14.454;2024-03-25T09:21:10;6.20;99.90
41939;DHT22;23057;48.554;14.454;2024-03-25T09:23:41;6.50;99.90
41939;DHT22;23057;48.554;14.454;2024-03-25T09:26:12;7.00;99.90
41939;DHT22;23057;48.554;14.454;2024-03-25T09:28:43;7.10;99.90
41939;DHT22;23057;48.554;14.454;2024-03-25T09:31:14;6.60;99.90
41939;DHT22;23057;48.554;14.454;2024-03-25T09:33:45;6.70;1.00
41939;DHT22;23057;48.554;14.454;2024-03-25T09:36:16;6.60;99.90
41939;DHT22;23057;48.554;14.454;2024-03-25T09:38:47;7.10;99.90
41939;DHT22;23057;48.554;14.454;2024-03-25T09:41:18;7.10;99.90
41939;DHT22;23057;48.554;14.454;2024-03-25T09:43:54;6.20;99.90
41939;DHT22;23057;48.554;14.454;2024-03-25T09:46:27;6.30;99.90
41939;DHT22;23057;48.554;14.454;2024-03-25T09:48:59;6.20;99.90
41939;DHT22;23057;48.554;14.454;2024-03-25T09:51:30;6.30;1.00
41939;DHT22;23057;48.554;14.454;2024-03-25T09:54:02;6.40;99.90
41939;DHT22;23057;48.554;14.454;2024-03-25T09:56:35;6.20;99.90
41939;DHT22;23057;48.554;14.454;2024-03-25T09:59:10;6.10;99.90
41939;DHT22;23057;48.554;14.454;2024-03-25T10:01:42;6.10;99.90
41939;DHT22;23057;48.554;14.454;2024-03-25T10:04:13;6.50;99.90
41939;DHT22;23057;48.554;14.454;2024-03-25T10:06:44;7.00;99.90
41939;DHT22;23057;48.554;14.454;2024-03-25T10:09:19;7.10;99.90
41939;DHT22;23057;48.554;14.454;2024-03-25T10:11:51;6.50;99.90
41939;DHT22;23057;48.554;14.454;2024-03-25T10:14:22;6.20;99.90
41939;DHT22;23057;48.554;14.454;2024-03-25T10:16:53;6.20;99.90
41939;DHT22;23057;48.554;14.454;2024-03-25T10:19:25;6.00;99.90
41939;DHT22;23057;48.554;14.454;2024-03-25T10:22:07;5.50;99.90
41939;DHT22;23057;48.554;14.454;2024-03-25T10:24:40;5.30;99.90
41939;DHT22;23057;48.554;14.454;2024-03-25T10:27:21;5.30;99.90
41939;DHT22;23057;48.554;14.454;2024-03-25T10:29:54;5.40;99.90
41939;DHT22;23057;48.554;14.454;2024-03-25T10:32:25;5.70;99.90
41939;DHT22;23057;48.554;14.454;2024-03-25T10:34:59;5.70;99.90
41939;DHT22;23057;48.554;14.454;2024-03-25T10:37:31;5.60;99.90
41939;DHT22;23057;48.554;14.454;2024-03-25T10:40:12;5.60;99.90
41939;DHT22;23057;48.554;14.454;2024-03-25T10:42:44;5.60;99.90
41939;DHT22;23057;48.554;14.454;2024-03-25T10:45:17;5.30;99.90
41939;DHT22;23057;48.554;14.454;2024-03-25T10:47:48;5.10;99.90
41939;DHT22;23057;48.554;14.454;2024-03-25T10:50:21;5.30;99.90
41939;DHT22;23057;48.554;14.454;2024-03-25T10:53:00;5.30;99.90
41939;DHT22;23057;48.554;14.454;2024-03-25T10:55:35;5.40;1.00
41939;DHT22;23057;48.554;14.454;2024-03-25T10:58:08;5.80;1.00
41939;DHT22;23057;48.554;14.454;2024-03-25T11:00:41;6.60;1.00
41939;DHT22;23057;48.554;14.454;2024-03-25T11:03:14;7.10;99.90
41939;DHT22;23057;48.554;14.454;2024-03-25T11:05:45;7.20;99.90
41939;DHT22;23057;48.554;14.454;2024-03-25T11:08:17;6.70;99.90
41939;DHT22;23057;48.554;14.454;2024-03-25T11:10:50;6.80;99.90
41939;DHT22;23057;48.554;14.454;2024-03-25T11:13:21;6.60;99.90
41939;DHT22;23057;48.554;14.454;2024-03-25T11:15:52;6.70;99.90
41939;DHT22;23057;48.554;14.454;2024-03-25T11:18:24;6.80;99.90
41939;DHT22;23057;48.554;14.454;2024-03-25T11:23:41;6.60;99.90
41939;DHT22;23057;48.554;14.454;2024-03-25T11:26:22;6.40;99.90
41939;DHT22;23057;48.554;14.454;2024-03-25T11:28:57;6.40;99.90
41939;DHT22;23057;48.554;14.454;2024-03-25T11:31:31;6.20;99.90
41939;DHT22;23057;48.554;14.454;2024-03-25T11:34:09;6.20;99.90
41939;DHT22;23057;48.554;14.454;2024-03-25T11:36:40;6.40;99.90
41939;DHT22;23057;48.554;14.454;2024-03-25T11:39:12;6.90;99.90
41939;DHT22;23057;48.554;14.454;2024-03-25T11:41:43;6.90;99.90
41939;DHT22;23057;48.554;14.454;2024-03-25T11:44:14;6.80;99.90
41939;DHT22;23057;48.554;14.454;2024-03-25T11:46:50;7.40;69.70
41939;DHT22;23057;48.554;14.454;2024-03-25T11:49:24;7.70;91.10
41939;DHT22;23057;48.554;14.454;2024-03-25T11:51:55;7.80;4.20
41939;DHT22;23057;48.554;14.454;2024-03-25T11:54:30;8.30;30.40
41939;DHT22;23057;48.554;14.454;2024-03-25T11:57:00;8.90;1.00
41939;DHT22;23057;48.554;14.454;2024-03-25T11:59:32;8.70;1.00
41939;DHT22;23057;48.554;14.454;2024-03-25T12:02:06;7.40;1.00
41939;DHT22;23057;48.554;14.454;2024-03-25T12:04:38;7.60;1.00
41939;DHT22;23057;48.554;14.454;2024-03-25T12:07:16;7.50;1.00
41939;DHT22;23057;48.554;14.454;2024-03-25T12:09:48;7.70;1.00
41939;DHT22;23057;48.554;14.454;2024-03-25T12:12:37;8.20;1.00
41939;DHT22;23057;48.554;14.454;2024-03-25T12:15:14;8.80;1.00
41939;DHT22;23057;48.554;14.454;2024-03-25T12:17:45;9.00;1.00
41939;DHT22;23057;48.554;14.454;2024-03-25T12:20:17;7.80;1.00
41939;DHT22;23057;48.554;14.454;2024-03-25T12:22:49;7.40;1.00
41939;DHT22;23057;48.554;14.454;2024-03-25T12:25:20;7.80;1.00
41939;DHT22;23057;48.554;14.454;2024-03-25T12:27:51;8.30;1.00
41939;DHT22;23057;48.554;14.454;2024-03-25T12:30:22;9.00;1.00
41939;DHT22;23057;48.554;14.454;2024-03-25T12:32:54;9.40;99.90
41939;DHT22;23057;48.554;14.454;2024-03-25T12:35:26;8.80;99.90
41939;DHT22;23057;48.554;14.454;2024-03-25T12:37:57;7.60;99.90
41939;DHT22;23057;48.554;14.454;2024-03-25T12:40:29;7.40;1.00
41939;DHT22;23057;48.554;14.454;2024-03-25T12:43:03;7.60;1.00
41939;DHT22;23057;48.554;14.454;2024-03-25T12:45:34;8.10;1.00
41939;DHT22;23057;48.554;14.454;2024-03-25T12:48:05;8.70;1.00
41939;DHT22;23057;48.554;14.454;2024-03-25T12:50:37;8.30;99.90
41939;DHT22;23057;48.554;14.454;2024-03-25T12:53:17;8.10;1.00
41939;DHT22;23057;48.554;14.454;2024-03-25T12:55:49;8.20;1.00
41939;DHT22;23057;48.554;14.454;2024-03-25T12:58:20;8.70;1.00
41939;DHT22;23057;48.554;14.454;2024-03-25T13:00:51;8.90;99.90
41939;DHT22;23057;48.554;14.454;2024-03-25T13:03:22;8.60;99.90
41939;DHT22;23057;48.554;14.454;2024-03-25T13:05:53;8.40;99.90
41939;DHT22;23057;48.554;14.454;2024-03-25T13:08:28;8.50;99.90
41939;DHT22;23057;48.554;14.454;2024-03-25T13:10:59;9.10;1.00
41939;DHT22;23057;48.554;14.454;2024-03-25T13:13:30;9.50;99.90
41939;DHT22;23057;48.554;14.454;2024-03-25T13:16:01;9.70;99.90
41939;DHT22;23057;48.554;14.454;2024-03-25T13:18:33;9.00;99.90
41939;DHT22;23057;48.554;14.454;2024-03-25T13:21:04;8.90;99.90
41939;DHT22;23057;48.554;14.454;2024-03-25T13:23:35;8.80;99.90
41939;DHT22;23057;48.554;14.454;2024-03-25T13:26:06;9.30;99.90
41939;DHT22;23057;48.554;14.454;2024-03-25T13:28:37;9.00;99.90
41939;DHT22;23057;48.554;14.454;2024-03-25T13:31:08;8.70;99.90
41939;DHT22;23057;48.554;14.454;2024-03-25T13:33:39;8.60;99.90
41939;DHT22;23057;48.554;14.454;2024-03-25T13:36:11;8.30;99.90
41939;DHT22;23057;48.554;14.454;2024-03-25T13:38:42;8.00;99.90
41939;DHT22;23057;48.554;14.454;2024-03-25T13:41:13;7.80;99.90
41939;DHT22;23057;48.554;14.454;2024-03-25T13:43:45;7.70;1.00
41939;DHT22;23057;48.554;14.454;2024-03-25T13:46:18;7.70;1.00
41939;DHT22;23057;48.554;14.454;2024-03-25T13:48:49;7.90;1.00
41939;DHT22;23057;48.554;14.454;2024-03-25T13:51:20;7.90;1.00
41939;DHT22;23057;48.554;14.454;2024-03-25T13:53:51;8.20;1.00
41939;DHT22;23057;48.554;14.454;2024-03-25T13:56:22;8.90;1.00
41939;DHT22;23057;48.554;14.454;2024-03-25T13:58:53;8.80;99.90
41939;DHT22;23057;48.554;14.454;2024-03-25T14:01:24;8.00;99.90
41939;DHT22;23057;48.554;14.454;2024-03-25T14:03:55;7.70;99.90
41939;DHT22;23057;48.554;14.454;2024-03-25T14:06:26;7.80;99.90
41939;DHT22;23057;48.554;14.454;2024-03-25T14:08:57;8.10;99.90
41939;DHT22;23057;48.554;14.454;2024-03-25T14:11:28;8.00;99.90
41939;DHT22;23057;48.554;14.454;2024-03-25T14:13:59;8.00;99.90
41939;DHT22;23057;48.554;14.454;2024-03-25T14:16:30;8.20;99.90
41939;DHT22;23057;48.554;14.454;2024-03-25T14:19:04;8.40;99.90
41939;DHT22;23057;48.554;14.454;2024-03-25T14:21:35;8.60;99.90
41939;DHT22;23057;48.554;14.454;2024-03-25T14:24:06;8.60;99.90
41939;DHT22;23057;48.554;14.454;2024-03-25T14:26:38;8.90;99.90
41939;DHT22;23057;48.554;14.454;2024-03-25T14:29:09;8.90;99.90
41939;DHT22;23057;48.554;14.454;2024-03-25T14:31:39;9.10;99.90
41939;DHT22;23057;48.554;14.454;2024-03-25T14:34:10;9.30;99.90
41939;DHT22;23057;48.554;14.454;2024-03-25T14:36:41;9.60;99.90
41939;DHT22;23057;48.554;14.454;2024-03-25T14:39:13;9.70;99.90
41939;DHT22;23057;48.554;14.454;2024-03-25T14:41:44;9.80;99.90
41939;DHT22;23057;48.554;14.454;2024-03-25T14:44:15;10.10;99.90
41939;DHT22;23057;48.554;14.454;2024-03-25T14:46:46;10.10;99.90
41939;DHT22;23057;48.554;14.454;2024-03-25T14:49:17;10.10;99.90
41939;DHT22;23057;48.554;14.454;2024-03-25T14:51:48;10.10;99.90
41939;DHT22;23057;48.554;14.454;2024-03-25T14:54:19;10.00;99.90
41939;DHT22;23057;48.554;14.454;2024-03-25T14:56:55;10.10;99.90
41939;DHT22;23057;48.554;14.454;2024-03-25T14:59:38;9.80;99.90
41939;DHT22;23057;48.554;14.454;2024-03-25T15:02:10;9.30;99.90
41939;DHT22;23057;48.554;14.454;2024-03-25T15:04:43;9.40;99.90
41939;DHT22;23057;48.554;14.454;2024-03-25T15:07:14;9.40;99.90
41939;DHT22;23057;48.554;14.454;2024-03-25T15:09:45;9.60;99.90
41939;DHT22;23057;48.554;14.454;2024-03-25T15:12:17;9.80;99.90
41939;DHT22;23057;48.554;14.454;2024-03-25T15:14:48;9.70;99.90
41939;DHT22;23057;48.554;14.454;2024-03-25T15:17:18;9.60;99.90
41939;DHT22;23057;48.554;14.454;2024-03-25T15:19:49;9.60;99.90
41939;DHT22;23057;48.554;14.454;2024-03-25T15:22:20;9.40;99.90
41939;DHT22;23057;48.554;14.454;2024-03-25T15:24:52;9.30;99.90
41939;DHT22;23057;48.554;14.454;2024-03-25T15:27:23;9.30;99.90
41939;DHT22;23057;48.554;14.454;2024-03-25T15:29:53;9.00;99.90
41939;DHT22;23057;48.554;14.454;2024-03-25T15:32:24;8.70;99.90
41939;DHT22;23057;48.554;14.454;2024-03-25T15:34:55;8.80;99.90
41939;DHT22;23057;48.554;14.454;2024-03-25T15:37:27;8.90;99.90
41939;DHT22;23057;48.554;14.454;2024-03-25T15:39:58;9.10;99.90
41939;DHT22;23057;48.554;14.454;2024-03-25T15:42:29;8.90;99.90
41939;DHT22;23057;48.554;14.454;2024-03-25T15:44:59;8.90;99.90
41939;DHT22;23057;48.554;14.454;2024-03-25T19:22:25;2.00;99.90
41939;DHT22;23057;48.554;14.454;2024-03-25T19:24:57;1.90;99.90
41939;DHT22;23057;48.554;14.454;2024-03-25T19:27:29;1.80;99.90
41939;DHT22;23057;48.554;14.454;2024-03-25T19:30:00;1.50;1.00
41939;DHT22;23057;48.554;14.454;2024-03-25T19:32:31;1.40;1.00
41939;DHT22;23057;48.554;14.454;2024-03-25T19:35:02;1.30;1.00
41939;DHT22;23057;48.554;14.454;2024-03-25T19:37:33;1.40;40.70
41939;DHT22;23057;48.554;14.454;2024-03-25T19:40:05;1.40;27.80